Milwaukee, WI

2:40 AM CDT on August 28, 2016 (GMT -0500)
Milwaukee Harbor | | Change Station
Active Advisory: Dense Fog Advisory

Elev 591 ft 43.02 °N, 87.91 °W | Updated 27 seconds ago

Partly Cloudy
Partly Cloudy
70.9 °F
Feels Like 70.9 °F
N
1.3
Wind Variable Wind from SSE
Gusts 2.5 mph

Today
High -- | Low -- °F
--% Chance of Precip.
Yesterday
High -- | Low -- °F
Precip. -- in
Pressure 30.09 in
Visibility 8.0 miles
Clouds Few 1000 ft
Dew Point 69 °F
Humidity 95%
Rainfall 0.00 in
Snow Depth Not available.
6:12 AM 7:32 PM
Waning Crescent, 17% visible
METAR KMKE 280652Z 00000KT 8SM FEW010 19/18 A3010 RMK AO2 SLP190 T01890178
Pressure 30.09 in
Visibility 8.0 miles
Clouds Few 1000 ft
Dew Point 69 °F
Humidity 95%
Rainfall 0.00 in
Snow Depth Not available.
6:12 AM 7:32 PM
Waning Crescent, 17% visible
METAR KMKE 280652Z 00000KT 8SM FEW010 19/18 A3010 RMK AO2 SLP190 T01890178

10-Day Weather Forecast

Almanac

Astronomy

Aug. 28, 2016 Rise Set
Actual Time
Civil Twilight
Nautical Twilight
Astronomical Twilight
Moon
Length of Visible Light
Length of Day
Tomorrow will be .
, % of the Moon is Illuminated

Today's Extremes

State Highs State Lows

Community

WunderPhotos

Upload Photos

1,935,533 photos uploaded!

WunderBlog® & News

Nearby

Air Quality

  Air Quality AQ Index Pollutant
Not available.

Snow Depth

Station Depth Elevation

Earthquake Activity

City Distance Mag. Time & Date
Minimum magnitude displayed is 2.5.

Coastal Water Temperatures

Place Temperature

Stations

Nearby Weather Stations

Station Location Temp. Windchill Dew Point Humidity Wind Precip. Elev Updated Type
                   

Watches & Warnings

Dense Fog Advisory
Issued: 12:36 AM CDT Aug. 28, 2016 – National Weather Service

... Dense fog advisory in effect until 10 am CDT this morning...

The National Weather Service in Milwaukee/Sullivan has issued a
dense fog advisory... which is in effect until 10 am CDT this
morning.

* Timing... tonight into Sunday morning.

* Visibility... less than a quarter mile.

* Impacts... it may be difficult to see the Road if you are out
driving


Precautionary/preparedness actions...

A dense fog advisory means visibilities will frequently be
reduced to less than one quarter mile. If driving... slow down...
use your headlights... and leave plenty of distance ahead of you.



Hentz